sensor_id;sensor_type;location;lat;lon;timestamp;P1;durP1;ratioP1;P2;durP2;ratioP2
35223;SDS011;21367;51.930;8.112;2023-07-09T00:02:57;145.23;;;133.77;;
35223;SDS011;21367;51.930;8.112;2023-07-09T00:08:03;146.65;;;134.38;;
35223;SDS011;21367;51.930;8.112;2023-07-09T00:13:07;150.05;;;137.32;;
35223;SDS011;21367;51.930;8.112;2023-07-09T00:18:11;137.85;;;126.93;;
35223;SDS011;21367;51.930;8.112;2023-07-09T00:23:17;129.15;;;118.70;;
35223;SDS011;21367;51.930;8.112;2023-07-09T00:28:21;146.35;;;134.93;;
35223;SDS011;21367;51.930;8.112;2023-07-09T00:33:25;141.48;;;130.23;;
35223;SDS011;21367;51.930;8.112;2023-07-09T00:38:35;145.02;;;133.43;;
35223;SDS011;21367;51.930;8.112;2023-07-09T00:43:40;147.63;;;135.25;;
35223;SDS011;21367;51.930;8.112;2023-07-09T00:48:44;145.93;;;133.90;;
35223;SDS011;21367;51.930;8.112;2023-07-09T00:53:55;152.63;;;140.57;;
35223;SDS011;21367;51.930;8.112;2023-07-09T00:59:08;168.43;;;154.82;;
35223;SDS011;21367;51.930;8.112;2023-07-09T01:04:18;170.30;;;157.10;;
35223;SDS011;21367;51.930;8.112;2023-07-09T01:09:26;167.63;;;154.40;;
35223;SDS011;21367;51.930;8.112;2023-07-09T01:14:30;148.98;;;137.23;;
35223;SDS011;21367;51.930;8.112;2023-07-09T01:19:37;138.85;;;127.85;;
35223;SDS011;21367;51.930;8.112;2023-07-09T01:24:52;130.55;;;119.97;;
35223;SDS011;21367;51.930;8.112;2023-07-09T01:29:57;116.95;;;107.32;;
35223;SDS011;21367;51.930;8.112;2023-07-09T01:35:02;125.90;;;115.57;;
35223;SDS011;21367;51.930;8.112;2023-07-09T01:40:11;129.65;;;118.93;;
35223;SDS011;21367;51.930;8.112;2023-07-09T01:45:17;115.80;;;106.13;;
35223;SDS011;21367;51.930;8.112;2023-07-09T01:50:21;123.97;;;113.80;;
35223;SDS011;21367;51.930;8.112;2023-07-09T01:55:27;142.35;;;131.02;;
35223;SDS011;21367;51.930;8.112;2023-07-09T02:00:33;130.18;;;119.68;;
35223;SDS011;21367;51.930;8.112;2023-07-09T02:05:37;145.75;;;133.38;;
35223;SDS011;21367;51.930;8.112;2023-07-09T02:10:48;137.25;;;126.50;;
35223;SDS011;21367;51.930;8.112;2023-07-09T02:15:52;130.82;;;120.57;;
35223;SDS011;21367;51.930;8.112;2023-07-09T02:20:55;143.32;;;132.20;;
35223;SDS011;21367;51.930;8.112;2023-07-09T02:26:02;130.73;;;119.68;;
35223;SDS011;21367;51.930;8.112;2023-07-09T02:31:05;135.10;;;123.85;;
35223;SDS011;21367;51.930;8.112;2023-07-09T02:36:09;134.48;;;123.68;;
35223;SDS011;21367;51.930;8.112;2023-07-09T02:41:15;132.75;;;122.25;;
35223;SDS011;21367;51.930;8.112;2023-07-09T02:46:19;131.75;;;120.93;;
35223;SDS011;21367;51.930;8.112;2023-07-09T02:51:23;142.55;;;130.77;;
35223;SDS011;21367;51.930;8.112;2023-07-09T02:56:29;139.25;;;127.05;;
35223;SDS011;21367;51.930;8.112;2023-07-09T03:01:33;126.70;;;116.30;;
35223;SDS011;21367;51.930;8.112;2023-07-09T03:06:37;124.00;;;113.50;;
35223;SDS011;21367;51.930;8.112;2023-07-09T03:11:44;134.52;;;123.68;;
35223;SDS011;21367;51.930;8.112;2023-07-09T03:16:47;127.80;;;117.38;;
35223;SDS011;21367;51.930;8.112;2023-07-09T03:21:51;108.25;;;99.15;;
35223;SDS011;21367;51.930;8.112;2023-07-09T03:26:57;105.22;;;96.10;;
35223;SDS011;21367;51.930;8.112;2023-07-09T03:32:01;86.82;;;79.00;;
35223;SDS011;21367;51.930;8.112;2023-07-09T03:37:05;91.93;;;83.68;;
35223;SDS011;21367;51.930;8.112;2023-07-09T03:42:11;86.70;;;78.80;;
35223;SDS011;21367;51.930;8.112;2023-07-09T03:47:15;91.57;;;83.47;;
35223;SDS011;21367;51.930;8.112;2023-07-09T03:52:18;80.70;;;73.25;;
35223;SDS011;21367;51.930;8.112;2023-07-09T03:57:25;96.65;;;88.10;;
35223;SDS011;21367;51.930;8.112;2023-07-09T04:02:28;88.53;;;80.57;;
35223;SDS011;21367;51.930;8.112;2023-07-09T04:07:32;95.88;;;87.10;;
35223;SDS011;21367;51.930;8.112;2023-07-09T04:12:38;85.05;;;77.75;;
35223;SDS011;21367;51.930;8.112;2023-07-09T04:17:42;86.40;;;78.72;;
35223;SDS011;21367;51.930;8.112;2023-07-09T04:22:45;91.65;;;83.65;;
35223;SDS011;21367;51.930;8.112;2023-07-09T04:27:51;98.75;;;90.30;;
35223;SDS011;21367;51.930;8.112;2023-07-09T04:32:55;90.38;;;82.47;;
35223;SDS011;21367;51.930;8.112;2023-07-09T04:37:59;92.93;;;84.88;;
35223;SDS011;21367;51.930;8.112;2023-07-09T04:43:06;86.82;;;78.95;;
35223;SDS011;21367;51.930;8.112;2023-07-09T04:48:10;91.65;;;82.97;;
35223;SDS011;21367;51.930;8.112;2023-07-09T04:53:14;92.07;;;83.82;;
35223;SDS011;21367;51.930;8.112;2023-07-09T04:58:21;84.00;;;76.60;;
35223;SDS011;21367;51.930;8.112;2023-07-09T05:03:26;84.05;;;76.60;;
35223;SDS011;21367;51.930;8.112;2023-07-09T05:08:29;78.47;;;71.68;;
35223;SDS011;21367;51.930;8.112;2023-07-09T05:13:36;75.72;;;69.10;;
35223;SDS011;21367;51.930;8.112;2023-07-09T05:18:40;84.10;;;76.70;;
35223;SDS011;21367;51.930;8.112;2023-07-09T05:23:43;79.55;;;72.70;;
35223;SDS011;21367;51.930;8.112;2023-07-09T05:28:50;81.28;;;74.13;;
35223;SDS011;21367;51.930;8.112;2023-07-09T05:33:53;78.63;;;71.05;;
35223;SDS011;21367;51.930;8.112;2023-07-09T05:38:57;83.03;;;75.50;;
35223;SDS011;21367;51.930;8.112;2023-07-09T05:44:03;77.82;;;70.70;;
35223;SDS011;21367;51.930;8.112;2023-07-09T05:49:07;73.50;;;66.78;;
35223;SDS011;21367;51.930;8.112;2023-07-09T05:54:11;68.38;;;62.30;;
35223;SDS011;21367;51.930;8.112;2023-07-09T05:59:17;70.13;;;63.15;;
35223;SDS011;21367;51.930;8.112;2023-07-09T06:04:21;71.32;;;64.90;;
35223;SDS011;21367;51.930;8.112;2023-07-09T06:09:26;72.60;;;66.15;;
35223;SDS011;21367;51.930;8.112;2023-07-09T06:14:33;73.93;;;67.50;;
35223;SDS011;21367;51.930;8.112;2023-07-09T06:19:37;79.50;;;72.20;;
35223;SDS011;21367;51.930;8.112;2023-07-09T06:24:41;56.33;;;50.28;;
35223;SDS011;21367;51.930;8.112;2023-07-09T06:29:47;61.85;;;55.47;;
35223;SDS011;21367;51.930;8.112;2023-07-09T06:34:50;75.68;;;68.75;;
35223;SDS011;21367;51.930;8.112;2023-07-09T06:39:54;289.77;;;266.02;;
35223;SDS011;21367;51.930;8.112;2023-07-09T06:45:00;72.95;;;66.30;;
35223;SDS011;21367;51.930;8.112;2023-07-09T06:50:05;75.57;;;69.15;;
35223;SDS011;21367;51.930;8.112;2023-07-09T06:55:09;86.07;;;78.47;;
35223;SDS011;21367;51.930;8.112;2023-07-09T07:00:16;73.18;;;66.53;;
35223;SDS011;21367;51.930;8.112;2023-07-09T07:05:20;69.45;;;63.20;;
35223;SDS011;21367;51.930;8.112;2023-07-09T07:10:24;293.05;;;269.40;;
35223;SDS011;21367;51.930;8.112;2023-07-09T07:15:30;66.05;;;60.33;;
35223;SDS011;21367;51.930;8.112;2023-07-09T07:20:34;62.72;;;57.03;;
35223;SDS011;21367;51.930;8.112;2023-07-09T07:25:38;48.60;;;44.15;;
35223;SDS011;21367;51.930;8.112;2023-07-09T07:30:44;48.83;;;44.22;;
35223;SDS011;21367;51.930;8.112;2023-07-09T07:35:48;51.85;;;47.03;;
35223;SDS011;21367;51.930;8.112;2023-07-09T07:40:54;57.67;;;52.20;;
35223;SDS011;21367;51.930;8.112;2023-07-09T07:46:01;69.63;;;62.47;;
35223;SDS011;21367;51.930;8.112;2023-07-09T07:51:05;55.08;;;49.92;;
35223;SDS011;21367;51.930;8.112;2023-07-09T07:56:08;71.68;;;65.30;;
35223;SDS011;21367;51.930;8.112;2023-07-09T08:01:15;188.02;;;172.90;;
35223;SDS011;21367;51.930;8.112;2023-07-09T08:06:18;179.18;;;164.70;;
35223;SDS011;21367;51.930;8.112;2023-07-09T08:11:22;193.23;;;177.18;;
35223;SDS011;21367;51.930;8.112;2023-07-09T08:16:30;146.07;;;133.52;;
35223;SDS011;21367;51.930;8.112;2023-07-09T08:21:34;183.45;;;166.27;;
35223;SDS011;21367;51.930;8.112;2023-07-09T08:26:38;173.93;;;159.30;;
35223;SDS011;21367;51.930;8.112;2023-07-09T08:31:44;150.60;;;138.07;;
35223;SDS011;21367;51.930;8.112;2023-07-09T08:36:47;183.30;;;167.18;;
35223;SDS011;21367;51.930;8.112;2023-07-09T08:41:52;158.95;;;145.45;;
35223;SDS011;21367;51.930;8.112;2023-07-09T08:47:06;139.88;;;128.13;;
35223;SDS011;21367;51.930;8.112;2023-07-09T08:52:19;157.32;;;143.73;;
35223;SDS011;21367;51.930;8.112;2023-07-09T08:57:34;171.52;;;157.02;;
35223;SDS011;21367;51.930;8.112;2023-07-09T09:02:46;132.02;;;120.75;;
35223;SDS011;21367;51.930;8.112;2023-07-09T09:07:55;133.05;;;120.95;;
35223;SDS011;21367;51.930;8.112;2023-07-09T09:13:05;123.03;;;111.25;;
35223;SDS011;21367;51.930;8.112;2023-07-09T09:18:23;186.50;;;169.88;;
35223;SDS011;21367;51.930;8.112;2023-07-09T09:23:28;136.68;;;123.72;;
35223;SDS011;21367;51.930;8.112;2023-07-09T09:28:39;174.40;;;157.65;;
35223;SDS011;21367;51.930;8.112;2023-07-09T09:33:46;163.33;;;148.00;;
35223;SDS011;21367;51.930;8.112;2023-07-09T09:38:52;155.77;;;140.68;;
35223;SDS011;21367;51.930;8.112;2023-07-09T09:43:56;109.15;;;98.65;;
35223;SDS011;21367;51.930;8.112;2023-07-09T09:49:02;81.03;;;72.10;;
35223;SDS011;21367;51.930;8.112;2023-07-09T09:54:07;92.15;;;82.75;;
35223;SDS011;21367;51.930;8.112;2023-07-09T09:59:19;61.03;;;55.22;;
35223;SDS011;21367;51.930;8.112;2023-07-09T10:04:26;50.95;;;45.83;;
35223;SDS011;21367;51.930;8.112;2023-07-09T10:09:35;99.18;;;90.47;;
35223;SDS011;21367;51.930;8.112;2023-07-09T10:14:49;91.03;;;83.22;;
35223;SDS011;21367;51.930;8.112;2023-07-09T10:20:02;46.63;;;42.08;;
35223;SDS011;21367;51.930;8.112;2023-07-09T10:25:14;48.67;;;43.88;;
35223;SDS011;21367;51.930;8.112;2023-07-09T10:30:35;63.88;;;58.05;;
35223;SDS011;21367;51.930;8.112;2023-07-09T10:35:52;79.55;;;73.13;;
35223;SDS011;21367;51.930;8.112;2023-07-09T10:41:04;65.70;;;60.05;;
35223;SDS011;21367;51.930;8.112;2023-07-09T10:46:14;65.85;;;59.88;;
35223;SDS011;21367;51.930;8.112;2023-07-09T10:51:24;69.80;;;63.78;;
35223;SDS011;21367;51.930;8.112;2023-07-09T10:56:31;66.75;;;60.63;;
35223;SDS011;21367;51.930;8.112;2023-07-09T11:01:38;48.53;;;43.47;;
35223;SDS011;21367;51.930;8.112;2023-07-09T11:06:49;61.90;;;56.92;;
35223;SDS011;21367;51.930;8.112;2023-07-09T11:11:57;69.57;;;63.30;;
35223;SDS011;21367;51.930;8.112;2023-07-09T11:17:05;62.25;;;56.88;;
35223;SDS011;21367;51.930;8.112;2023-07-09T11:22:20;61.90;;;55.90;;
35223;SDS011;21367;51.930;8.112;2023-07-09T11:27:26;86.60;;;78.95;;
35223;SDS011;21367;51.930;8.112;2023-07-09T11:32:31;90.40;;;82.68;;
35223;SDS011;21367;51.930;8.112;2023-07-09T11:37:43;70.13;;;63.92;;
35223;SDS011;21367;51.930;8.112;2023-07-09T11:42:52;80.38;;;72.85;;
35223;SDS011;21367;51.930;8.112;2023-07-09T11:47:59;98.43;;;90.10;;
35223;SDS011;21367;51.930;8.112;2023-07-09T11:53:16;75.53;;;68.22;;
35223;SDS011;21367;51.930;8.112;2023-07-09T11:58:34;81.35;;;73.93;;
35223;SDS011;21367;51.930;8.112;2023-07-09T12:03:39;65.68;;;60.03;;
35223;SDS011;21367;51.930;8.112;2023-07-09T12:08:49;66.15;;;59.90;;
35223;SDS011;21367;51.930;8.112;2023-07-09T12:13:53;96.13;;;88.07;;
35223;SDS011;21367;51.930;8.112;2023-07-09T12:19:03;89.28;;;81.70;;
35223;SDS011;21367;51.930;8.112;2023-07-09T12:24:17;71.03;;;64.75;;
35223;SDS011;21367;51.930;8.112;2023-07-09T12:29:24;90.28;;;82.63;;
35223;SDS011;21367;51.930;8.112;2023-07-09T12:34:30;61.22;;;56.28;;
35223;SDS011;21367;51.930;8.112;2023-07-09T12:39:36;65.82;;;59.95;;
35223;SDS011;21367;51.930;8.112;2023-07-09T12:44:41;68.50;;;62.17;;
35223;SDS011;21367;51.930;8.112;2023-07-09T12:49:46;68.70;;;62.58;;
35223;SDS011;21367;51.930;8.112;2023-07-09T12:54:57;84.38;;;77.13;;
35223;SDS011;21367;51.930;8.112;2023-07-09T13:00:05;75.47;;;68.88;;
35223;SDS011;21367;51.930;8.112;2023-07-09T13:05:18;82.43;;;75.43;;
35223;SDS011;21367;51.930;8.112;2023-07-09T13:10:26;85.60;;;78.72;;
35223;SDS011;21367;51.930;8.112;2023-07-09T13:15:38;88.15;;;80.13;;
35223;SDS011;21367;51.930;8.112;2023-07-09T13:20:45;97.53;;;89.25;;
35223;SDS011;21367;51.930;8.112;2023-07-09T13:25:52;92.90;;;85.15;;
35223;SDS011;21367;51.930;8.112;2023-07-09T13:30:59;88.10;;;79.78;;
35223;SDS011;21367;51.930;8.112;2023-07-09T13:36:04;91.43;;;83.78;;
35223;SDS011;21367;51.930;8.112;2023-07-09T13:41:15;88.03;;;80.25;;
35223;SDS011;21367;51.930;8.112;2023-07-09T13:46:22;69.30;;;63.50;;
35223;SDS011;21367;51.930;8.112;2023-07-09T13:51:27;80.47;;;73.07;;
35223;SDS011;21367;51.930;8.112;2023-07-09T13:56:34;91.32;;;83.53;;
35223;SDS011;21367;51.930;8.112;2023-07-09T14:01:37;82.07;;;75.50;;
35223;SDS011;21367;51.930;8.112;2023-07-09T14:06:42;77.55;;;70.95;;
35223;SDS011;21367;51.930;8.112;2023-07-09T14:11:50;75.43;;;69.07;;
35223;SDS011;21367;51.930;8.112;2023-07-09T14:16:55;87.55;;;79.85;;
35223;SDS011;21367;51.930;8.112;2023-07-09T14:21:59;82.10;;;75.35;;
35223;SDS011;21367;51.930;8.112;2023-07-09T14:27:07;56.00;;;50.83;;
35223;SDS011;21367;51.930;8.112;2023-07-09T14:32:31;84.25;;;76.88;;
35223;SDS011;21367;51.930;8.112;2023-07-09T14:37:37;91.95;;;84.05;;
35223;SDS011;21367;51.930;8.112;2023-07-09T14:42:44;87.07;;;79.65;;
35223;SDS011;21367;51.930;8.112;2023-07-09T14:47:47;92.07;;;84.28;;
35223;SDS011;21367;51.930;8.112;2023-07-09T14:57:57;79.78;;;73.18;;
35223;SDS011;21367;51.930;8.112;2023-07-09T15:03:01;88.13;;;80.97;;
35223;SDS011;21367;51.930;8.112;2023-07-09T15:08:12;91.43;;;82.82;;
35223;SDS011;21367;51.930;8.112;2023-07-09T15:13:20;83.25;;;75.90;;
35223;SDS011;21367;51.930;8.112;2023-07-09T15:18:27;77.65;;;70.85;;
35223;SDS011;21367;51.930;8.112;2023-07-09T15:23:32;74.05;;;67.80;;
35223;SDS011;21367;51.930;8.112;2023-07-09T15:28:44;78.28;;;71.68;;
35223;SDS011;21367;51.930;8.112;2023-07-09T15:33:50;73.90;;;67.70;;
35223;SDS011;21367;51.930;8.112;2023-07-09T15:38:54;69.60;;;63.35;;
35223;SDS011;21367;51.930;8.112;2023-07-09T15:44:00;53.70;;;48.23;;
35223;SDS011;21367;51.930;8.112;2023-07-09T15:49:04;63.58;;;57.60;;
35223;SDS011;21367;51.930;8.112;2023-07-09T15:54:10;76.90;;;70.33;;
35223;SDS011;21367;51.930;8.112;2023-07-09T15:59:24;83.10;;;75.55;;
35223;SDS011;21367;51.930;8.112;2023-07-09T16:04:29;108.93;;;99.35;;
35223;SDS011;21367;51.930;8.112;2023-07-09T16:09:33;100.77;;;91.13;;
35223;SDS011;21367;51.930;8.112;2023-07-09T16:14:40;116.53;;;104.75;;
35223;SDS011;21367;51.930;8.112;2023-07-09T16:19:44;97.57;;;88.90;;
35223;SDS011;21367;51.930;8.112;2023-07-09T16:24:48;107.00;;;94.40;;
35223;SDS011;21367;51.930;8.112;2023-07-09T16:29:54;203.37;;;183.83;;
35223;SDS011;21367;51.930;8.112;2023-07-09T16:34:58;209.15;;;191.32;;
35223;SDS011;21367;51.930;8.112;2023-07-09T16:40:02;151.50;;;137.80;;
35223;SDS011;21367;51.930;8.112;2023-07-09T16:45:09;67.70;;;61.40;;
35223;SDS011;21367;51.930;8.112;2023-07-09T16:50:15;112.45;;;102.78;;
35223;SDS011;21367;51.930;8.112;2023-07-09T16:55:22;125.78;;;115.85;;
35223;SDS011;21367;51.930;8.112;2023-07-09T17:00:31;56.72;;;51.38;;
35223;SDS011;21367;51.930;8.112;2023-07-09T17:05:37;89.05;;;80.18;;
35223;SDS011;21367;51.930;8.112;2023-07-09T17:10:41;63.15;;;57.75;;
35223;SDS011;21367;51.930;8.112;2023-07-09T17:15:49;178.53;;;163.77;;
35223;SDS011;21367;51.930;8.112;2023-07-09T17:20:54;214.35;;;195.98;;
35223;SDS011;21367;51.930;8.112;2023-07-09T17:25:59;55.65;;;50.05;;
35223;SDS011;21367;51.930;8.112;2023-07-09T17:31:05;35.70;;;32.13;;
35223;SDS011;21367;51.930;8.112;2023-07-09T17:36:09;42.05;;;38.55;;
35223;SDS011;21367;51.930;8.112;2023-07-09T17:41:17;40.38;;;36.20;;
35223;SDS011;21367;51.930;8.112;2023-07-09T17:46:23;44.33;;;40.58;;
35223;SDS011;21367;51.930;8.112;2023-07-09T17:51:28;53.05;;;48.67;;
35223;SDS011;21367;51.930;8.112;2023-07-09T17:56:32;34.70;;;31.27;;
35223;SDS011;21367;51.930;8.112;2023-07-09T18:01:39;36.08;;;32.53;;
35223;SDS011;21367;51.930;8.112;2023-07-09T18:06:45;36.50;;;33.08;;
35223;SDS011;21367;51.930;8.112;2023-07-09T18:11:52;45.72;;;41.42;;
35223;SDS011;21367;51.930;8.112;2023-07-09T18:17:00;28.13;;;25.27;;
35223;SDS011;21367;51.930;8.112;2023-07-09T18:22:11;31.63;;;28.50;;
35223;SDS011;21367;51.930;8.112;2023-07-09T18:27:18;37.78;;;30.45;;
35223;SDS011;21367;51.930;8.112;2023-07-09T18:32:27;75.10;;;68.72;;
35223;SDS011;21367;51.930;8.112;2023-07-09T18:37:31;52.80;;;47.97;;
35223;SDS011;21367;51.930;8.112;2023-07-09T18:42:34;22.73;;;20.40;;
35223;SDS011;21367;51.930;8.112;2023-07-09T18:47:41;28.90;;;22.60;;
35223;SDS011;21367;51.930;8.112;2023-07-09T18:52:45;21.50;;;19.20;;
35223;SDS011;21367;51.930;8.112;2023-07-09T18:57:49;31.25;;;24.73;;
35223;SDS011;21367;51.930;8.112;2023-07-09T19:02:56;20.80;;;16.80;;
35223;SDS011;21367;51.930;8.112;2023-07-09T19:08:00;23.77;;;19.25;;
35223;SDS011;21367;51.930;8.112;2023-07-09T19:13:19;43.55;;;39.85;;
35223;SDS011;21367;51.930;8.112;2023-07-09T19:18:27;49.13;;;45.08;;
35223;SDS011;21367;51.930;8.112;2023-07-09T19:23:35;55.83;;;50.80;;
35223;SDS011;21367;51.930;8.112;2023-07-09T19:28:38;54.42;;;49.80;;
35223;SDS011;21367;51.930;8.112;2023-07-09T19:33:45;43.15;;;39.03;;
35223;SDS011;21367;51.930;8.112;2023-07-09T19:38:49;55.70;;;50.65;;
35223;SDS011;21367;51.930;8.112;2023-07-09T19:43:54;47.80;;;43.17;;
35223;SDS011;21367;51.930;8.112;2023-07-09T19:49:02;50.67;;;46.25;;
35223;SDS011;21367;51.930;8.112;2023-07-09T19:54:10;39.25;;;35.28;;
35223;SDS011;21367;51.930;8.112;2023-07-09T19:59:17;39.90;;;35.92;;
35223;SDS011;21367;51.930;8.112;2023-07-09T20:04:25;54.90;;;50.00;;
35223;SDS011;21367;51.930;8.112;2023-07-09T20:14:40;46.63;;;42.08;;
35223;SDS011;21367;51.930;8.112;2023-07-09T20:19:47;51.10;;;46.85;;
35223;SDS011;21367;51.930;8.112;2023-07-09T20:24:51;46.22;;;41.88;;
35223;SDS011;21367;51.930;8.112;2023-07-09T20:29:54;38.67;;;35.20;;
35223;SDS011;21367;51.930;8.112;2023-07-09T20:35:00;57.50;;;53.13;;
35223;SDS011;21367;51.930;8.112;2023-07-09T20:40:10;55.35;;;50.90;;
35223;SDS011;21367;51.930;8.112;2023-07-09T20:45:17;48.53;;;44.38;;
35223;SDS011;21367;51.930;8.112;2023-07-09T20:50:28;45.65;;;41.45;;
35223;SDS011;21367;51.930;8.112;2023-07-09T20:55:33;53.05;;;48.40;;
35223;SDS011;21367;51.930;8.112;2023-07-09T21:00:37;41.75;;;37.72;;
35223;SDS011;21367;51.930;8.112;2023-07-09T21:05:43;48.00;;;43.50;;
35223;SDS011;21367;51.930;8.112;2023-07-09T21:10:49;45.85;;;41.67;;
35223;SDS011;21367;51.930;8.112;2023-07-09T21:15:54;37.60;;;33.78;;
35223;SDS011;21367;51.930;8.112;2023-07-09T21:21:02;44.40;;;40.22;;
35223;SDS011;21367;51.930;8.112;2023-07-09T21:26:08;57.30;;;51.47;;
35223;SDS011;21367;51.930;8.112;2023-07-09T21:31:17;55.00;;;49.88;;
35223;SDS011;21367;51.930;8.112;2023-07-09T21:36:25;39.88;;;36.33;;
35223;SDS011;21367;51.930;8.112;2023-07-09T21:41:29;45.22;;;41.13;;
35223;SDS011;21367;51.930;8.112;2023-07-09T21:46:33;36.30;;;32.92;;
35223;SDS011;21367;51.930;8.112;2023-07-09T21:51:39;41.15;;;37.22;;
35223;SDS011;21367;51.930;8.112;2023-07-09T21:56:43;43.25;;;39.50;;
35223;SDS011;21367;51.930;8.112;2023-07-09T22:01:47;61.08;;;55.95;;
35223;SDS011;21367;51.930;8.112;2023-07-09T22:06:55;60.20;;;54.53;;
35223;SDS011;21367;51.930;8.112;2023-07-09T22:11:59;65.00;;;59.70;;
35223;SDS011;21367;51.930;8.112;2023-07-09T22:17:04;46.20;;;41.88;;
35223;SDS011;21367;51.930;8.112;2023-07-09T22:22:11;50.60;;;45.85;;
35223;SDS011;21367;51.930;8.112;2023-07-09T22:27:15;56.75;;;51.55;;
35223;SDS011;21367;51.930;8.112;2023-07-09T22:32:20;55.15;;;50.00;;
35223;SDS011;21367;51.930;8.112;2023-07-09T22:37:29;53.58;;;48.88;;
35223;SDS011;21367;51.930;8.112;2023-07-09T22:42:34;51.13;;;46.42;;
35223;SDS011;21367;51.930;8.112;2023-07-09T22:47:38;28.90;;;25.98;;
35223;SDS011;21367;51.930;8.112;2023-07-09T22:52:44;30.17;;;26.63;;
35223;SDS011;21367;51.930;8.112;2023-07-09T22:57:49;27.58;;;22.23;;
35223;SDS011;21367;51.930;8.112;2023-07-09T23:02:53;30.58;;;20.48;;
35223;SDS011;21367;51.930;8.112;2023-07-09T23:13:06;27.73;;;19.30;;
35223;SDS011;21367;51.930;8.112;2023-07-09T23:18:12;23.45;;;16.98;;
35223;SDS011;21367;51.930;8.112;2023-07-09T23:23:20;32.30;;;16.52;;
35223;SDS011;21367;51.930;8.112;2023-07-09T23:28:25;26.02;;;11.73;;
35223;SDS011;21367;51.930;8.112;2023-07-09T23:33:29;24.15;;;12.35;;
35223;SDS011;21367;51.930;8.112;2023-07-09T23:38:39;25.83;;;12.02;;
35223;SDS011;21367;51.930;8.112;2023-07-09T23:43:43;26.42;;;13.00;;
35223;SDS011;21367;51.930;8.112;2023-07-09T23:48:47;24.40;;;15.07;;
35223;SDS011;21367;51.930;8.112;2023-07-09T23:53:53;28.48;;;15.70;;
35223;SDS011;21367;51.930;8.112;2023-07-09T23:58:57;37.72;;;18.55;;
